Terminal Aerodrome Forecast
Issued by NWS Mt. Holly, NJ

Home | Current Version | Previous Version | Text Only | Print | Product List | Glossary On
Versions: 1 2 3 4 5 6 7 8 9 10 11 12 13 14 15 16 17 18 19 20 21 22 23
575
FTUS41 KPHI 201130
TAFPHL
TAF
KPHL 201130Z 2012/2118 35008KT P6SM FEW250
     FM201400 34012G17KT P6SM FEW250
     FM202300 36007KT P6SM FEW250
     FM210600 06004KT P6SM SCT250
     FM211500 14007KT P6SM BKN250=

USA.gov is the U.S. government's official web portal to all federal, state and local government web resources and services.